createdAt,value
2023-03-13T00:01:24.947Z,23.92
2023-03-13T00:03:53.092Z,22.75
2023-03-13T00:06:20.781Z,18.00
2023-03-13T00:08:48.364Z,20.25
2023-03-13T00:11:18.624Z,20.17
2023-03-13T00:13:46.121Z,18.73
2023-03-13T00:16:15.922Z,20.83
2023-03-13T00:18:48.701Z,22.98
2023-03-13T00:21:17.344Z,21.70
2023-03-13T00:23:45.086Z,15.45
2023-03-13T00:26:18.344Z,19.92
2023-03-13T00:28:46.961Z,19.48
2023-03-13T00:31:20.474Z,19.48
2023-03-13T00:33:53.385Z,21.63
2023-03-13T00:36:30.175Z,22.92
2023-03-13T00:38:58.664Z,25.90
2023-03-13T00:41:28.420Z,18.10
2023-03-13T00:43:56.453Z,23.60
2023-03-13T00:46:26.696Z,19.17
2023-03-13T00:48:54.530Z,24.17
2023-03-13T00:51:24.186Z,17.10
2023-03-13T00:53:52.313Z,21.02
2023-03-13T00:56:21.752Z,21.95
2023-03-13T00:58:50.514Z,19.63
2023-03-13T01:01:21.276Z,20.50
2023-03-13T01:03:52.640Z,18.48
2023-03-13T01:06:23.034Z,15.43
2023-03-13T01:08:51.472Z,18.88
2023-03-13T01:11:22.201Z,21.75
2023-03-13T01:13:50.644Z,20.70
2023-03-13T01:16:21.702Z,19.35
2023-03-13T01:18:52.290Z,14.63
2023-03-13T01:21:21.561Z,20.63
2023-03-13T01:23:50.331Z,20.77
2023-03-13T01:26:18.242Z,15.57
2023-03-13T01:28:46.212Z,16.30
2023-03-13T01:31:27.374Z,12.82
2023-03-13T01:33:57.212Z,21.88
2023-03-13T01:36:25.284Z,17.05
2023-03-13T01:38:55.356Z,18.30
2023-03-13T01:41:24.831Z,21.08
2023-03-13T01:43:53.192Z,18.02
2023-03-13T01:46:25.509Z,19.00
2023-03-13T01:49:12.387Z,24.85
2023-03-13T01:52:10.789Z,19.38
2023-03-13T01:54:54.431Z,18.75
2023-03-13T01:57:28.540Z,13.23
2023-03-13T02:00:10.768Z,20.13
2023-03-13T02:02:46.420Z,21.77
2023-03-13T02:05:16.012Z,22.08
2023-03-13T02:07:47.049Z,15.27
2023-03-13T02:10:18.055Z,13.68
2023-03-13T02:12:45.832Z,16.45
2023-03-13T02:15:19.952Z,15.00
2023-03-13T02:17:49.512Z,16.00
2023-03-13T02:20:22.431Z,16.20
2023-03-13T02:23:22.677Z,22.23
2023-03-13T02:25:53.625Z,13.93
2023-03-13T02:28:35.067Z,17.65
2023-03-13T02:31:06.521Z,18.27
2023-03-13T02:33:39.333Z,15.40
2023-03-13T02:36:08.959Z,27.73
2023-03-13T02:38:45.272Z,23.17
2023-03-13T02:41:14.478Z,22.63
2023-03-13T02:43:42.076Z,20.70
2023-03-13T02:46:16.120Z,15.05
2023-03-13T02:48:54.571Z,17.15
2023-03-13T02:51:35.244Z,18.25
2023-03-13T02:54:09.299Z,19.02
2023-03-13T02:56:40.580Z,22.70
2023-03-13T02:59:10.127Z,17.37
2023-03-13T03:01:41.396Z,23.33
2023-03-13T03:04:08.877Z,22.05
2023-03-13T03:06:36.376Z,19.15
2023-03-13T03:09:05.468Z,17.17
2023-03-13T03:11:35.808Z,18.95
2023-03-13T03:14:08.292Z,20.92
2023-03-13T03:16:40.558Z,19.73
2023-03-13T03:19:09.717Z,18.33
2023-03-13T03:21:37.534Z,15.18
2023-03-13T03:24:05.578Z,24.17
2023-03-13T03:26:33.111Z,14.45
2023-03-13T03:29:01.109Z,17.67
2023-03-13T03:31:28.736Z,15.70
2023-03-13T03:33:58.007Z,15.80
2023-03-13T03:36:25.689Z,19.05
2023-03-13T03:38:53.460Z,20.67
2023-03-13T03:41:25.330Z,13.48
2023-03-13T03:43:53.624Z,19.02
2023-03-13T03:46:24.923Z,21.52
2023-03-13T03:48:52.588Z,20.80
2023-03-13T03:51:20.605Z,17.95
2023-03-13T03:53:48.841Z,18.48
2023-03-13T03:56:16.454Z,22.23
2023-03-13T03:58:49.632Z,10.00
2023-03-13T04:01:35.915Z,18.42
2023-03-13T04:04:04.874Z,20.20
2023-03-13T04:06:32.547Z,15.82
2023-03-13T04:09:00.986Z,19.75
2023-03-13T04:11:30.494Z,23.30
2023-03-13T04:13:58.447Z,20.92
2023-03-13T04:16:27.028Z,21.85
2023-03-13T04:18:56.057Z,16.50
2023-03-13T04:21:26.114Z,21.27
2023-03-13T04:24:00.274Z,25.23
2023-03-13T04:26:28.366Z,20.55
2023-03-13T04:28:58.370Z,20.42
2023-03-13T04:31:58.010Z,18.95
2023-03-13T04:34:28.392Z,20.60
2023-03-13T04:37:16.755Z,18.55
2023-03-13T04:40:09.561Z,15.35
2023-03-13T04:42:41.497Z,18.35
2023-03-13T04:45:18.284Z,20.60
2023-03-13T04:48:21.336Z,19.38
2023-03-13T04:51:02.634Z,19.77
2023-03-13T04:53:48.462Z,19.88
2023-03-13T04:56:42.729Z,19.38
2023-03-13T04:59:31.757Z,19.08
2023-03-13T05:02:07.389Z,19.65
2023-03-13T05:04:43.816Z,22.40
2023-03-13T05:07:17.338Z,16.73
2023-03-13T05:10:07.104Z,18.75
2023-03-13T05:12:48.313Z,19.23
2023-03-13T05:15:26.226Z,17.35
2023-03-13T05:18:13.055Z,23.60
2023-03-13T05:20:57.399Z,19.13
2023-03-13T05:23:43.499Z,14.93
2023-03-13T05:26:31.220Z,17.92
2023-03-13T05:29:17.414Z,11.43
2023-03-13T05:32:03.539Z,20.75
2023-03-13T05:34:51.250Z,14.05
2023-03-13T05:37:48.006Z,18.50
2023-03-13T05:40:29.880Z,19.65
2023-03-13T05:43:26.643Z,16.05
2023-03-13T05:46:13.004Z,18.40
2023-03-13T05:49:02.992Z,23.98
2023-03-13T05:51:33.448Z,25.50
2023-03-13T05:54:19.708Z,21.42
2023-03-13T05:57:05.821Z,22.58
2023-03-13T05:59:54.644Z,24.85
2023-03-13T06:02:41.319Z,27.90
2023-03-13T06:05:12.050Z,25.38
2023-03-13T06:07:39.765Z,21.00
2023-03-13T06:10:07.411Z,20.20
2023-03-13T06:12:36.156Z,25.98
2023-03-13T06:15:07.391Z,20.80
2023-03-13T06:18:10.214Z,24.05
2023-03-13T06:20:39.972Z,21.60
2023-03-13T06:23:08.588Z,18.90
2023-03-13T06:25:36.007Z,17.98
2023-03-13T06:32:16.129Z,21.50
2023-03-13T06:34:43.697Z,21.92
2023-03-13T06:37:11.691Z,17.67
2023-03-13T06:39:39.369Z,21.70
2023-03-13T06:42:07.469Z,18.00
2023-03-13T06:44:35.005Z,16.70
2023-03-13T06:47:02.521Z,22.05
2023-03-13T06:49:30.099Z,21.25
2023-03-13T06:51:59.149Z,19.25
2023-03-13T06:54:26.801Z,22.05
2023-03-13T06:56:54.248Z,16.63
2023-03-13T06:59:21.890Z,17.98
2023-03-13T07:01:49.274Z,21.80
2023-03-13T07:04:17.014Z,18.27
2023-03-13T07:06:44.910Z,14.70
2023-03-13T07:09:12.443Z,22.70
2023-03-13T07:11:39.902Z,16.75
2023-03-13T07:14:16.606Z,17.08
2023-03-13T07:16:46.321Z,19.25
2023-03-13T07:19:15.386Z,19.63
2023-03-13T07:21:44.281Z,18.02
2023-03-13T07:24:11.915Z,18.15
2023-03-13T07:26:39.770Z,14.38
2023-03-13T07:29:08.633Z,13.70
2023-03-13T07:31:36.230Z,16.75
2023-03-13T07:34:03.691Z,16.15
2023-03-13T07:36:31.435Z,13.07
2023-03-13T07:38:58.873Z,20.38
2023-03-13T07:41:26.367Z,12.82
2023-03-13T07:43:53.856Z,15.43
2023-03-13T07:46:21.837Z,14.73
2023-03-13T07:48:49.439Z,18.98
2023-03-13T07:51:25.142Z,15.60
2023-03-13T07:53:55.243Z,16.58
2023-03-13T07:56:24.622Z,16.98
2023-03-13T07:58:52.178Z,16.05
2023-03-13T08:01:24.431Z,17.35
2023-03-13T08:03:55.623Z,17.63
2023-03-13T08:06:25.106Z,20.10
2023-03-13T08:08:53.627Z,15.75
2023-03-13T08:11:26.101Z,12.20
2023-03-13T08:13:54.526Z,12.50
2023-03-13T08:16:24.631Z,18.38
2023-03-13T08:18:57.495Z,18.17
2023-03-13T08:21:30.874Z,14.85
2023-03-13T08:24:01.446Z,11.80
2023-03-13T08:26:30.695Z,13.32
2023-03-13T08:29:00.959Z,10.75
2023-03-13T08:31:31.207Z,12.23
2023-03-13T08:33:59.566Z,13.45
2023-03-13T08:36:33.966Z,10.95
2023-03-13T08:39:04.993Z,10.50
2023-03-13T08:41:37.054Z,10.38
2023-03-13T08:44:05.658Z,11.85
2023-03-13T08:46:35.466Z,6.65
2023-03-13T08:49:05.108Z,7.35
2023-03-13T08:51:33.631Z,5.93
2023-03-13T08:54:02.049Z,6.95
2023-03-13T08:56:30.611Z,5.78
2023-03-13T08:59:00.314Z,7.25
2023-03-13T09:01:30.250Z,7.32
2023-03-13T09:03:59.931Z,4.03
2023-03-13T09:06:28.794Z,5.95
2023-03-13T09:08:59.512Z,6.03
2023-03-13T09:11:27.793Z,3.97
2023-03-13T09:13:56.283Z,5.35
2023-03-13T09:16:25.626Z,4.47
2023-03-13T09:18:53.588Z,4.43
2023-03-13T09:21:24.044Z,5.22
2023-03-13T09:23:51.982Z,2.92
2023-03-13T09:26:22.979Z,3.80
2023-03-13T09:28:52.687Z,4.28
2023-03-13T09:31:22.976Z,5.97
2023-03-13T09:33:51.132Z,6.28
2023-03-13T09:36:22.092Z,4.18
2023-03-13T09:38:55.213Z,4.68
2023-03-13T09:41:24.592Z,2.05
2023-03-13T09:44:06.930Z,2.17
2023-03-13T09:46:44.524Z,4.53
2023-03-13T09:49:37.074Z,4.78
2023-03-13T09:52:14.647Z,1.90
2023-03-13T09:54:50.901Z,3.63
2023-03-13T09:57:32.380Z,6.20
2023-03-13T10:00:13.771Z,2.03
2023-03-13T10:02:47.729Z,3.75
2023-03-13T10:05:24.921Z,1.20
2023-03-13T10:08:01.833Z,3.22
2023-03-13T10:11:07.776Z,2.28
2023-03-13T10:13:48.109Z,1.70
2023-03-13T10:16:24.714Z,1.67
2023-03-13T10:19:00.169Z,2.42
2023-03-13T10:21:34.716Z,1.92
2023-03-13T10:24:23.273Z,3.13
2023-03-13T10:26:50.789Z,2.63
2023-03-13T10:29:25.848Z,1.98
2023-03-13T10:32:04.986Z,1.48
2023-03-13T10:34:51.520Z,1.58
2023-03-13T10:37:42.550Z,2.92
2023-03-13T10:40:14.623Z,1.42
2023-03-13T10:42:46.170Z,2.67
2023-03-13T10:45:19.009Z,1.52
2023-03-13T10:47:55.656Z,3.15
2023-03-13T10:50:25.829Z,2.28
2023-03-13T10:52:57.821Z,1.17
2023-03-13T10:55:26.451Z,1.00
2023-03-13T10:58:01.390Z,1.23
2023-03-13T11:00:37.134Z,2.28
2023-03-13T11:03:33.563Z,2.40
2023-03-13T11:06:03.348Z,2.45
2023-03-13T11:08:37.483Z,2.30
2023-03-13T11:11:16.675Z,0.90
2023-03-13T11:13:44.867Z,1.77
2023-03-13T11:16:20.480Z,2.58
2023-03-13T11:19:06.124Z,1.20
2023-03-13T11:21:45.572Z,1.73
2023-03-13T11:24:27.961Z,1.45
2023-03-13T11:27:09.078Z,1.58
2023-03-13T11:29:45.449Z,2.03
2023-03-13T11:32:54.089Z,2.90
2023-03-13T11:35:33.383Z,1.52
2023-03-13T11:38:08.118Z,2.55
2023-03-13T11:41:19.807Z,1.30
2023-03-13T11:44:05.386Z,1.42
2023-03-13T11:46:54.795Z,1.05
2023-03-13T11:49:25.137Z,2.90
2023-03-13T11:52:07.779Z,2.17
2023-03-13T11:54:55.308Z,1.05
2023-03-13T11:57:30.965Z,1.65
2023-03-13T12:00:14.270Z,1.33
2023-03-13T12:02:59.967Z,2.40
2023-03-13T12:05:29.071Z,2.33
2023-03-13T12:08:07.378Z,3.67
2023-03-13T12:10:43.804Z,2.67
2023-03-13T12:13:31.615Z,2.63
2023-03-13T12:16:07.582Z,2.63
2023-03-13T12:18:44.096Z,3.47
2023-03-13T12:21:23.879Z,2.53
2023-03-13T12:24:03.254Z,5.05
2023-03-13T12:26:49.958Z,1.20
2023-03-13T12:30:01.548Z,1.20
2023-03-13T12:32:54.184Z,2.03
2023-03-13T12:35:33.339Z,1.17
2023-03-13T12:38:19.492Z,2.58
2023-03-13T12:41:10.209Z,1.02
2023-03-13T12:43:40.950Z,2.10
2023-03-13T12:46:34.901Z,1.15
2023-03-13T12:49:28.381Z,1.48
2023-03-13T12:52:02.654Z,1.73
2023-03-13T12:54:39.064Z,1.95
2023-03-13T12:57:42.315Z,2.05
2023-03-13T13:00:22.298Z,1.88
2023-03-13T13:03:16.451Z,1.33
2023-03-13T13:06:19.653Z,1.05
2023-03-13T13:08:52.984Z,2.95
2023-03-13T13:11:38.928Z,1.80
2023-03-13T13:14:12.344Z,1.45
2023-03-13T13:16:47.296Z,0.95
2023-03-13T13:19:40.799Z,0.90
2023-03-13T13:22:39.183Z,1.13
2023-03-13T13:25:33.196Z,1.20
2023-03-13T13:28:15.947Z,1.67
2023-03-13T13:30:43.527Z,0.70
2023-03-13T13:33:30.883Z,1.65
2023-03-13T13:36:10.650Z,0.90
2023-03-13T13:38:44.321Z,0.80
2023-03-13T13:41:11.753Z,1.20
2023-03-13T13:43:48.048Z,0.82
2023-03-13T13:46:31.478Z,0.93
2023-03-13T13:49:08.104Z,1.05
2023-03-13T13:51:39.934Z,1.92
2023-03-13T13:54:32.511Z,2.38
2023-03-13T13:57:07.271Z,1.50
2023-03-13T13:59:42.351Z,1.00
2023-03-13T14:02:10.791Z,2.25
2023-03-13T14:04:52.811Z,0.60
2023-03-13T14:07:45.240Z,1.58
2023-03-13T14:10:32.109Z,0.82
2023-03-13T14:13:02.978Z,1.70
2023-03-13T14:15:32.233Z,1.02
2023-03-13T14:18:26.718Z,1.30
2023-03-13T14:23:33.307Z,1.77
2023-03-13T14:26:35.515Z,2.75
2023-03-13T14:29:05.987Z,3.30
2023-03-13T14:31:37.573Z,1.10
2023-03-13T14:34:07.957Z,1.60
2023-03-13T14:37:11.176Z,1.85
2023-03-13T14:39:46.203Z,0.93
2023-03-13T14:42:16.561Z,2.10
2023-03-13T14:44:46.755Z,1.45
2023-03-13T14:47:27.012Z,0.70
2023-03-13T14:50:04.469Z,2.55
2023-03-13T14:52:33.207Z,2.35
2023-03-13T14:55:04.454Z,0.85
2023-03-13T14:57:33.019Z,1.00
2023-03-13T15:00:40.830Z,4.07
2023-03-13T15:03:17.466Z,2.60
2023-03-13T15:06:07.516Z,4.75
2023-03-13T15:08:38.084Z,5.13
2023-03-13T15:11:26.686Z,2.90
2023-03-13T15:13:54.921Z,3.17
2023-03-13T15:16:24.180Z,2.58
2023-03-13T15:18:53.013Z,2.92
2023-03-13T15:21:23.781Z,2.75
2023-03-13T15:23:56.186Z,1.70
2023-03-13T15:26:24.965Z,1.55
2023-03-13T15:28:52.485Z,3.08
2023-03-13T15:31:23.921Z,1.65
2023-03-13T15:33:57.059Z,2.60
2023-03-13T15:36:26.128Z,3.77
2023-03-13T15:38:53.632Z,3.20
2023-03-13T15:41:21.654Z,3.90
2023-03-13T15:43:52.900Z,2.90
2023-03-13T15:46:21.254Z,1.10
2023-03-13T15:48:49.007Z,2.78
2023-03-13T15:51:17.579Z,2.25
2023-03-13T15:53:46.538Z,1.50
2023-03-13T15:56:19.979Z,2.72
2023-03-13T15:58:48.058Z,2.85
2023-03-13T16:01:16.773Z,1.73
2023-03-13T16:03:46.200Z,1.00
2023-03-13T16:06:28.250Z,1.70
2023-03-13T16:08:55.714Z,1.75
2023-03-13T16:11:24.675Z,4.05
2023-03-13T16:13:53.001Z,3.28
2023-03-13T16:16:23.410Z,1.85
2023-03-13T16:18:52.394Z,2.85
2023-03-13T16:21:26.249Z,3.85
2023-03-13T16:26:24.163Z,3.60
2023-03-13T16:28:53.210Z,2.10
2023-03-13T16:31:29.776Z,3.40
2023-03-13T16:33:59.034Z,2.78
2023-03-13T16:36:30.282Z,2.05
2023-03-13T16:39:03.272Z,3.88
2023-03-13T16:41:33.640Z,4.70
2023-03-13T16:44:02.846Z,4.82
2023-03-13T16:46:37.883Z,3.25
2023-03-13T16:49:07.005Z,3.70
2023-03-13T16:51:34.720Z,5.47
2023-03-13T16:54:03.681Z,4.07
2023-03-13T16:56:39.135Z,3.78
2023-03-13T16:59:16.888Z,3.33
2023-03-13T17:01:46.053Z,2.40
2023-03-13T17:04:13.999Z,2.10
2023-03-13T17:06:44.774Z,2.58
2023-03-13T17:09:16.415Z,3.33
2023-03-13T17:11:44.797Z,3.83
2023-03-13T17:14:13.519Z,2.67
2023-03-13T17:16:45.674Z,4.05
2023-03-13T17:19:14.864Z,3.40
2023-03-13T17:21:42.706Z,2.28
2023-03-13T17:24:10.177Z,4.40
2023-03-13T17:26:39.485Z,4.55
2023-03-13T17:29:08.859Z,3.22
2023-03-13T17:31:40.639Z,3.20
2023-03-13T17:34:08.969Z,2.72
2023-03-13T17:36:36.624Z,3.42
2023-03-13T17:39:06.314Z,2.88
2023-03-13T17:41:35.272Z,3.83
2023-03-13T17:44:05.955Z,5.05
2023-03-13T17:46:41.069Z,3.35
2023-03-13T17:49:11.900Z,5.10
2023-03-13T17:51:41.658Z,3.33
2023-03-13T17:54:09.221Z,2.70
2023-03-13T17:56:39.675Z,6.97
2023-03-13T17:59:12.571Z,6.88
2023-03-13T18:01:40.220Z,4.47
2023-03-13T18:04:08.181Z,4.43
2023-03-13T18:06:49.940Z,4.72
2023-03-13T18:09:21.647Z,4.28
2023-03-13T18:11:49.651Z,4.20
2023-03-13T18:14:17.255Z,7.32
2023-03-13T18:16:51.259Z,4.38
2023-03-13T18:19:22.951Z,4.13
2023-03-13T18:21:55.690Z,5.85
2023-03-13T18:24:23.460Z,2.63
2023-03-13T18:26:51.204Z,3.50
2023-03-13T18:29:26.889Z,4.38
2023-03-13T18:31:56.734Z,6.30
2023-03-13T18:34:25.942Z,4.32
2023-03-13T18:36:54.570Z,5.72
2023-03-13T18:39:22.501Z,3.67
2023-03-13T18:41:50.227Z,5.07
2023-03-13T18:44:19.073Z,8.25
2023-03-13T18:46:47.933Z,4.20
2023-03-13T18:49:23.591Z,5.40
2023-03-13T18:51:56.032Z,5.68
2023-03-13T18:54:23.507Z,4.60
2023-03-13T18:56:51.051Z,5.45
2023-03-13T18:59:21.045Z,4.22
2023-03-13T19:01:48.957Z,6.63
2023-03-13T19:04:17.313Z,3.97
2023-03-13T19:06:49.033Z,7.32
2023-03-13T19:09:42.161Z,4.63
2023-03-13T19:12:10.308Z,5.43
2023-03-13T19:14:37.871Z,4.10
2023-03-13T19:17:07.324Z,5.78
2023-03-13T19:19:34.944Z,4.78
2023-03-13T19:22:02.460Z,8.98
2023-03-13T19:24:29.949Z,5.90
2023-03-13T19:27:00.294Z,4.95
2023-03-13T19:29:28.733Z,5.70
2023-03-13T19:31:56.580Z,4.47
2023-03-13T19:34:24.303Z,6.35
2023-03-13T19:36:53.535Z,3.97
2023-03-13T19:39:26.223Z,4.70
2023-03-13T19:41:54.097Z,2.72
2023-03-13T19:44:22.048Z,6.20
2023-03-13T19:46:49.608Z,5.22
2023-03-13T19:49:20.017Z,12.63
2023-03-13T19:51:48.311Z,6.30
2023-03-13T19:54:15.898Z,5.55
2023-03-13T19:56:46.098Z,1.95
2023-03-13T19:59:16.626Z,1.85
2023-03-13T20:01:44.454Z,0.75
2023-03-13T20:04:12.699Z,0.98
2023-03-13T20:06:41.778Z,1.85
2023-03-13T20:09:11.769Z,3.90
2023-03-13T20:11:39.328Z,2.65
2023-03-13T20:14:07.337Z,1.98
2023-03-13T20:16:35.342Z,2.00
2023-03-13T20:19:03.646Z,1.27
2023-03-13T20:21:36.797Z,0.32
2023-03-13T20:24:04.574Z,2.37
2023-03-13T20:26:32.417Z,0.50
2023-03-13T20:28:59.939Z,0.70
2023-03-13T20:31:31.482Z,0.60
2023-03-13T20:33:59.977Z,1.42
2023-03-13T20:36:27.792Z,0.80
2023-03-13T20:38:55.426Z,0.70
2023-03-13T20:41:25.953Z,2.20
2023-03-13T20:43:53.845Z,0.68
2023-03-13T20:46:21.739Z,1.38
2023-03-13T20:48:49.709Z,0.40
2023-03-13T20:51:17.201Z,2.83
2023-03-13T20:53:44.764Z,0.75
2023-03-13T20:56:12.459Z,1.30
2023-03-13T20:58:40.083Z,0.93
2023-03-13T21:01:08.384Z,0.50
2023-03-13T21:03:36.382Z,0.80
2023-03-13T21:06:12.364Z,1.35
2023-03-13T21:08:39.972Z,1.98
2023-03-13T21:11:19.619Z,1.52
2023-03-13T21:13:47.946Z,0.55
2023-03-13T21:16:16.807Z,0.63
2023-03-13T21:18:44.593Z,0.43
2023-03-13T21:21:18.929Z,0.70
2023-03-13T21:23:47.376Z,1.60
2023-03-13T21:26:15.139Z,0.77
2023-03-13T21:28:42.626Z,0.60
2023-03-13T21:31:13.531Z,0.82
2023-03-13T21:33:42.043Z,0.88
2023-03-13T21:36:10.363Z,0.60
2023-03-13T21:38:38.696Z,0.85
2023-03-13T21:41:14.554Z,0.50
2023-03-13T21:43:42.872Z,0.47
2023-03-13T21:46:11.885Z,0.40
2023-03-13T21:48:40.669Z,1.10
2023-03-13T21:51:09.364Z,0.77
2023-03-13T21:53:38.256Z,0.40
2023-03-13T21:56:06.094Z,1.08
2023-03-13T21:58:33.599Z,1.55
2023-03-13T22:01:01.151Z,0.75
2023-03-13T22:03:29.021Z,0.75
2023-03-13T22:05:56.526Z,0.60
2023-03-13T22:08:23.962Z,0.80
2023-03-13T22:10:55.084Z,0.68
2023-03-13T22:13:22.711Z,2.03
2023-03-13T22:15:52.800Z,0.50
2023-03-13T22:18:20.420Z,0.73
2023-03-13T22:20:47.906Z,0.63
2023-03-13T22:23:15.385Z,0.57
2023-03-13T22:25:44.319Z,5.05
2023-03-13T22:28:13.555Z,0.73
2023-03-13T22:30:41.217Z,0.90
2023-03-13T22:33:08.725Z,1.73
2023-03-13T22:35:39.753Z,1.65
2023-03-13T22:38:07.279Z,0.70
2023-03-13T22:40:34.758Z,1.52
2023-03-13T22:43:02.418Z,2.05
2023-03-13T22:45:32.200Z,1.10
2023-03-13T22:48:06.334Z,0.85
2023-03-13T22:50:35.144Z,0.80
2023-03-13T22:53:03.264Z,1.17
2023-03-13T22:55:33.357Z,1.48
2023-03-13T22:58:01.136Z,0.73
2023-03-13T23:00:29.339Z,2.67
2023-03-13T23:02:56.795Z,0.85
2023-03-13T23:05:24.283Z,2.20
2023-03-13T23:07:51.807Z,1.17
2023-03-13T23:10:19.447Z,0.88
2023-03-13T23:12:46.927Z,0.90
2023-03-13T23:15:14.724Z,1.75
2023-03-13T23:17:42.378Z,1.00
2023-03-13T23:20:13.713Z,1.17
2023-03-13T23:22:43.208Z,3.00
2023-03-13T23:25:12.177Z,1.27
2023-03-13T23:27:39.881Z,2.90
2023-03-13T23:30:09.564Z,1.65
2023-03-13T23:32:39.202Z,1.23
2023-03-13T23:35:08.080Z,1.30
2023-03-13T23:37:35.528Z,2.03
2023-03-13T23:40:05.707Z,1.15
2023-03-13T23:42:33.203Z,3.85
2023-03-13T23:45:02.514Z,1.58
2023-03-13T23:47:30.276Z,1.75
2023-03-13T23:49:57.786Z,2.00
2023-03-13T23:52:25.408Z,2.00
2023-03-13T23:54:53.362Z,2.13
2023-03-13T23:57:20.926Z,3.17
2023-03-13T23:59:49.267Z,2.00
